Covington, Oklahoma
Current Conditions -  °F | °C
As of 1:55 AM on Friday 31 Oct 2014 (Local Time) from KWDG Reporting Station
NA  
Wind Chill: 10°   Ceiling: NA
Heat Index: 10°   Visibility: 10mi
Dew Point:   Wind: 9mph
Humidity: 62%   Direction: 350°N
Pressure: 30.28"   Gusts: NA
Location:  36.31°N, 97.59°W
Report Text: KWDG 310655Z AUTO 35008KT 10SM 10/03 A3028 RMK AO2
Loading
Personal Weather Stations






























Interactive Weather Map
Tropical Storm Tracking
New forecast layout! Learn more

10-Day Weather Forecast

Advertisements
Track Severe Weather on mobile